Albion, Nebraska
Current Conditions -  °F | °C
As of 5:55 AM on Sunday 25 Jan 2015 (Local Time) from KBVN Reporting Station
Overcast Overcast  
Wind Chill: 25°   Ceiling: 1400
Heat Index: 36°   Visibility: 10mi
Dew Point: 32°   Wind: 17mph
Humidity: 86%   Direction: 340°NNW
Pressure: 29.86"   Gusts: 25mph
Location:  41.69°N, 98°W
Report Text: KBVN 251155Z AUTO 34015G22KT 10SM BKN014 OVC046 02/00 A2986 RMK AO2 70001 T00201001 10051 20015
Loading
Personal Weather Stations






























Interactive Weather Map New forecast layout! Learn more

10-Day Weather Forecast

Advertisements
Track Severe Weather on mobile